sensor_id;sensor_type;location;lat;lon;timestamp;pressure;altitude;pressure_sealevel;temperature;humidity
51759;BME280;66684;47.568;18.734;2023-04-02T00:09:01;98507.06;;;7.96;100.00
51759;BME280;66684;47.568;18.734;2023-04-02T00:11:34;98503.03;;;8.04;100.00
51759;BME280;66684;47.568;18.734;2023-04-02T00:14:04;98501.56;;;8.11;100.00
51759;BME280;66684;47.568;18.734;2023-04-02T00:16:31;98507.37;;;8.05;100.00
51759;BME280;66684;47.568;18.734;2023-04-02T00:19:00;98511.38;;;7.97;100.00
51759;BME280;66684;47.568;18.734;2023-04-02T00:21:31;98514.47;;;8.13;100.00
51759;BME280;66684;47.568;18.734;2023-04-02T00:24:00;98514.34;;;8.09;100.00
51759;BME280;66684;47.568;18.734;2023-04-02T00:26:30;98516.09;;;8.10;100.00
51759;BME280;66684;47.568;18.734;2023-04-02T00:28:59;98514.97;;;8.02;100.00
51759;BME280;66684;47.568;18.734;2023-04-02T00:31:25;98507.84;;;7.94;100.00
51759;BME280;66684;47.568;18.734;2023-04-02T00:33:52;98514.87;;;7.99;100.00
51759;BME280;66684;47.568;18.734;2023-04-02T00:36:21;98512.41;;;8.02;100.00
51759;BME280;66684;47.568;18.734;2023-04-02T00:38:49;98508.19;;;7.79;100.00
51759;BME280;66684;47.568;18.734;2023-04-02T00:41:20;98513.44;;;7.82;100.00
51759;BME280;66684;47.568;18.734;2023-04-02T00:43:47;98512.53;;;7.80;100.00
51759;BME280;66684;47.568;18.734;2023-04-02T00:46:18;98514.97;;;7.77;100.00
51759;BME280;66684;47.568;18.734;2023-04-02T00:48:55;98518.47;;;7.79;100.00
51759;BME280;66684;47.568;18.734;2023-04-02T00:51:30;98516.84;;;7.81;100.00
51759;BME280;66684;47.568;18.734;2023-04-02T00:54:00;98518.88;;;7.91;100.00
51759;BME280;66684;47.568;18.734;2023-04-02T00:56:31;98523.50;;;8.01;100.00
51759;BME280;66684;47.568;18.734;2023-04-02T00:59:00;98514.34;;;8.09;100.00
51759;BME280;66684;47.568;18.734;2023-04-02T01:01:33;98517.28;;;7.95;100.00
51759;BME280;66684;47.568;18.734;2023-04-02T01:04:03;98521.59;;;7.96;100.00
51759;BME280;66684;47.568;18.734;2023-04-02T01:06:36;98518.78;;;8.14;100.00
51759;BME280;66684;47.568;18.734;2023-04-02T01:12:26;98518.78;;;7.88;100.00
51759;BME280;66684;47.568;18.734;2023-04-02T01:15:11;98518.12;;;7.94;100.00
51759;BME280;66684;47.568;18.734;2023-04-02T01:17:51;98515.72;;;7.98;100.00
51759;BME280;66684;47.568;18.734;2023-04-02T01:21:03;98511.53;;;8.02;100.00
51759;BME280;66684;47.568;18.734;2023-04-02T01:29:07;98529.69;;;8.06;100.00
51759;BME280;66684;47.568;18.734;2023-04-02T01:31:35;98520.22;;;8.05;100.00
51759;BME280;66684;47.568;18.734;2023-04-02T01:34:05;98517.47;;;8.26;100.00
51759;BME280;66684;47.568;18.734;2023-04-02T01:36:45;98515.28;;;8.11;100.00
51759;BME280;66684;47.568;18.734;2023-04-02T01:42:19;98513.72;;;7.91;100.00
51759;BME280;66684;47.568;18.734;2023-04-02T01:44:50;98519.28;;;8.03;100.00
51759;BME280;66684;47.568;18.734;2023-04-02T01:47:21;98515.28;;;8.11;100.00
51759;BME280;66684;47.568;18.734;2023-04-02T01:49:47;98520.63;;;8.18;100.00
51759;BME280;66684;47.568;18.734;2023-04-02T01:52:18;98526.09;;;8.01;100.00
51759;BME280;66684;47.568;18.734;2023-04-02T01:54:51;98523.50;;;8.01;100.00
51759;BME280;66684;47.568;18.734;2023-04-02T01:57:17;98523.03;;;8.13;100.00
51759;BME280;66684;47.568;18.734;2023-04-02T01:59:44;98529.69;;;8.06;100.00
51759;BME280;66684;47.568;18.734;2023-04-02T02:02:11;98538.13;;;8.02;100.00
51759;BME280;66684;47.568;18.734;2023-04-02T02:04:39;98529.50;;;8.00;100.00
51759;BME280;66684;47.568;18.734;2023-04-02T02:07:12;98534.31;;;7.91;100.00
51759;BME280;66684;47.568;18.734;2023-04-02T02:09:39;98537.63;;;7.87;100.00
51759;BME280;66684;47.568;18.734;2023-04-02T02:12:06;98532.56;;;7.90;100.00
51759;BME280;66684;47.568;18.734;2023-04-02T02:14:32;98531.94;;;7.97;100.00
51759;BME280;66684;47.568;18.734;2023-04-02T02:16:59;98528.97;;;7.85;100.00
51759;BME280;66684;47.568;18.734;2023-04-02T02:19:37;98535.25;;;7.93;100.00
51759;BME280;66684;47.568;18.734;2023-04-02T02:24:43;98529.69;;;8.06;100.00
51759;BME280;66684;47.568;18.734;2023-04-02T02:29:51;98526.38;;;8.10;100.00
51759;BME280;66684;47.568;18.734;2023-04-02T02:32:26;98526.56;;;8.17;100.00
51759;BME280;66684;47.568;18.734;2023-04-02T02:35:00;98526.97;;;8.02;100.00
51759;BME280;66684;47.568;18.734;2023-04-02T02:37:30;98521.19;;;8.09;100.00
51759;BME280;66684;47.568;18.734;2023-04-02T02:40:02;98526.56;;;8.17;100.00
51759;BME280;66684;47.568;18.734;2023-04-02T02:42:37;98518.78;;;8.14;100.00
51759;BME280;66684;47.568;18.734;2023-04-02T02:45:09;98512.72;;;8.11;100.00
51759;BME280;66684;47.568;18.734;2023-04-02T02:47:38;98513.63;;;8.14;100.00
51759;BME280;66684;47.568;18.734;2023-04-02T02:50:12;98516.09;;;8.10;100.00
51759;BME280;66684;47.568;18.734;2023-04-02T02:52:46;98521.84;;;8.03;100.00
51759;BME280;66684;47.568;18.734;2023-04-02T02:55:17;98528.16;;;8.11;100.00
51759;BME280;66684;47.568;18.734;2023-04-02T02:57:55;98528.63;;;8.00;100.00
51759;BME280;66684;47.568;18.734;2023-04-02T03:00:24;98528.16;;;8.11;100.00
51759;BME280;66684;47.568;18.734;2023-04-02T03:02:52;98533.59;;;8.21;100.00
51759;BME280;66684;47.568;18.734;2023-04-02T03:05:25;98532.75;;;8.22;100.00
51759;BME280;66684;47.568;18.734;2023-04-02T03:07:53;98538.66;;;8.18;100.00
51759;BME280;66684;47.568;18.734;2023-04-02T03:13:22;98540.91;;;8.08;100.00
51759;BME280;66684;47.568;18.734;2023-04-02T03:23:51;98532.78;;;7.96;100.00
51759;BME280;66684;47.568;18.734;2023-04-02T03:26:41;98533.75;;;8.00;100.00
51759;BME280;66684;47.568;18.734;2023-04-02T03:29:24;98530.16;;;7.95;100.00
51759;BME280;66684;47.568;18.734;2023-04-02T03:34:35;98537.09;;;7.97;100.00
51759;BME280;66684;47.568;18.734;2023-04-02T03:37:23;98542.50;;;8.05;100.00
51759;BME280;66684;47.568;18.734;2023-04-02T03:42:22;98542.44;;;8.03;100.00
51759;BME280;66684;47.568;18.734;2023-04-02T03:44:56;98549.19;;;8.00;100.00
51759;BME280;66684;47.568;18.734;2023-04-02T03:47:32;98545.75;;;7.99;100.00
51759;BME280;66684;47.568;18.734;2023-04-02T03:50:02;98545.69;;;7.98;100.00
51759;BME280;66684;47.568;18.734;2023-04-02T03:52:29;98550.34;;;7.84;100.00
51759;BME280;66684;47.568;18.734;2023-04-02T03:54:58;98560.81;;;7.89;100.00
51759;BME280;66684;47.568;18.734;2023-04-02T03:58:02;98553.81;;;7.84;100.00
51759;BME280;66684;47.568;18.734;2023-04-02T04:00:40;98565.66;;;7.79;100.00
51759;BME280;66684;47.568;18.734;2023-04-02T04:03:14;98565.16;;;7.91;100.00
51759;BME280;66684;47.568;18.734;2023-04-02T04:05:49;98566.63;;;7.83;100.00
51759;BME280;66684;47.568;18.734;2023-04-02T04:08:22;98569.22;;;7.84;100.00
51759;BME280;66684;47.568;18.734;2023-04-02T04:10:56;98574.25;;;7.80;100.00
51759;BME280;66684;47.568;18.734;2023-04-02T04:13:48;98573.63;;;7.87;100.00
51759;BME280;66684;47.568;18.734;2023-04-02T04:16:20;98580.69;;;7.69;100.00
51759;BME280;66684;47.568;18.734;2023-04-02T04:19:00;98584.00;;;7.66;100.00
51759;BME280;66684;47.568;18.734;2023-04-02T04:21:28;98581.41;;;7.65;100.00
51759;BME280;66684;47.568;18.734;2023-04-02T04:24:16;98582.94;;;7.60;100.00
51759;BME280;66684;47.568;18.734;2023-04-02T04:27:05;98581.63;;;7.71;100.00
51759;BME280;66684;47.568;18.734;2023-04-02T04:32:34;98584.00;;;7.66;100.00
51759;BME280;66684;47.568;18.734;2023-04-02T04:35:07;98584.47;;;7.54;100.00
51759;BME280;66684;47.568;18.734;2023-04-02T04:37:42;98583.56;;;7.54;100.00
51759;BME280;66684;47.568;18.734;2023-04-02T04:40:27;98584.63;;;7.59;100.00
51759;BME280;66684;47.568;18.734;2023-04-02T04:42:58;98590.72;;;7.61;100.00
51759;BME280;66684;47.568;18.734;2023-04-02T04:45:43;98600.69;;;7.77;100.00
51759;BME280;66684;47.568;18.734;2023-04-02T04:48:16;98594.72;;;7.78;100.00
51759;BME280;66684;47.568;18.734;2023-04-02T04:50:51;98593.38;;;7.88;100.00
51759;BME280;66684;47.568;18.734;2023-04-02T04:53:21;98592.97;;;8.01;100.00
51759;BME280;66684;47.568;18.734;2023-04-02T04:55:49;98597.75;;;8.16;100.00
51759;BME280;66684;47.568;18.734;2023-04-02T04:58:23;98593.44;;;8.15;100.00
51759;BME280;66684;47.568;18.734;2023-04-02T05:03:30;98596.56;;;8.06;100.00
51759;BME280;66684;47.568;18.734;2023-04-02T05:06:02;98597.94;;;8.22;100.00
51759;BME280;66684;47.568;18.734;2023-04-02T05:08:33;98604.75;;;8.20;100.00
51759;BME280;66684;47.568;18.734;2023-04-02T05:11:05;98600.69;;;8.27;100.00
51759;BME280;66684;47.568;18.734;2023-04-02T05:14:17;98601.19;;;8.17;100.00
51759;BME280;66684;47.568;18.734;2023-04-02T05:19:33;98602.22;;;8.22;100.00
51759;BME280;66684;47.568;18.734;2023-04-02T05:22:16;98607.59;;;8.28;100.00
51759;BME280;66684;47.568;18.734;2023-04-02T05:27:35;98602.44;;;8.28;100.00
51759;BME280;66684;47.568;18.734;2023-04-02T05:32:36;98608.66;;;8.34;100.00
51759;BME280;66684;47.568;18.734;2023-04-02T05:35:09;98618.25;;;8.37;100.00
51759;BME280;66684;47.568;18.734;2023-04-02T05:37:39;98620.91;;;8.40;100.00
51759;BME280;66684;47.568;18.734;2023-04-02T05:40:41;98616.63;;;8.41;100.00
51759;BME280;66684;47.568;18.734;2023-04-02T05:43:15;98619.50;;;8.50;100.00
51759;BME280;66684;47.568;18.734;2023-04-02T05:45:44;98619.03;;;8.61;100.00
51759;BME280;66684;47.568;18.734;2023-04-02T05:48:17;98627.28;;;8.51;100.00
51759;BME280;66684;47.568;18.734;2023-04-02T05:50:49;98625.75;;;8.56;100.00
51759;BME280;66684;47.568;18.734;2023-04-02T05:53:18;98627.91;;;8.71;100.00
51759;BME280;66684;47.568;18.734;2023-04-02T05:56:22;98633.94;;;8.72;100.00
51759;BME280;66684;47.568;18.734;2023-04-02T05:58:56;98630.28;;;8.65;100.00
51759;BME280;66684;47.568;18.734;2023-04-02T06:01:45;98632.25;;;8.72;100.00
51759;BME280;66684;47.568;18.734;2023-04-02T06:04:40;98640.03;;;8.74;100.00
51759;BME280;66684;47.568;18.734;2023-04-02T06:07:19;98622.94;;;8.76;100.00
51759;BME280;66684;47.568;18.734;2023-04-02T06:09:56;98625.53;;;8.77;100.00
51759;BME280;66684;47.568;18.734;2023-04-02T06:12:41;98628.34;;;8.85;100.00
51759;BME280;66684;47.568;18.734;2023-04-02T06:15:13;98635.31;;;8.87;100.00
51759;BME280;66684;47.568;18.734;2023-04-02T06:20:17;98636.19;;;9.16;100.00
51759;BME280;66684;47.568;18.734;2023-04-02T06:22:44;98639.97;;;9.28;100.00
51759;BME280;66684;47.568;18.734;2023-04-02T06:25:20;98643.94;;;9.45;100.00
51759;BME280;66684;47.568;18.734;2023-04-02T06:27:49;98635.09;;;9.67;100.00
51759;BME280;66684;47.568;18.734;2023-04-02T06:30:19;98650.88;;;9.76;100.00
51759;BME280;66684;47.568;18.734;2023-04-02T06:32:48;98643.97;;;9.75;100.00
51759;BME280;66684;47.568;18.734;2023-04-02T06:35:14;98657.59;;;9.71;100.00
51759;BME280;66684;47.568;18.734;2023-04-02T06:37:43;98652.41;;;9.69;100.00
51759;BME280;66684;47.568;18.734;2023-04-02T06:43:10;98650.81;;;9.75;100.00
51759;BME280;66684;47.568;18.734;2023-04-02T06:45:39;98656.91;;;9.77;100.00
51759;BME280;66684;47.568;18.734;2023-04-02T06:48:15;98653.41;;;9.75;100.00
51759;BME280;66684;47.568;18.734;2023-04-02T06:51:06;98652.44;;;9.71;100.00
51759;BME280;66684;47.568;18.734;2023-04-02T06:53:36;98658.75;;;9.52;100.00
51759;BME280;66684;47.568;18.734;2023-04-02T06:58:33;98662.22;;;9.83;100.00
51759;BME280;66684;47.568;18.734;2023-04-02T07:00:59;98671.47;;;9.75;100.00
51759;BME280;66684;47.568;18.734;2023-04-02T07:03:30;98676.19;;;9.89;100.00
51759;BME280;66684;47.568;18.734;2023-04-02T07:05:57;98665.84;;;9.89;100.00
51759;BME280;66684;47.568;18.734;2023-04-02T07:08:24;98668.28;;;9.85;100.00
51759;BME280;66684;47.568;18.734;2023-04-02T07:10:50;98667.63;;;9.92;100.00
51759;BME280;66684;47.568;18.734;2023-04-02T07:13:21;98672.63;;;9.86;100.00
51759;BME280;66684;47.568;18.734;2023-04-02T07:15:50;98679.56;;;9.87;100.00
51759;BME280;66684;47.568;18.734;2023-04-02T07:18:29;98674.63;;;9.96;100.00
51759;BME280;66684;47.568;18.734;2023-04-02T07:20:56;98677.19;;;9.94;100.00
51759;BME280;66684;47.568;18.734;2023-04-02T07:23:22;98688.28;;;9.92;100.00
51759;BME280;66684;47.568;18.734;2023-04-02T07:25:49;98687.75;;;10.04;100.00
51759;BME280;66684;47.568;18.734;2023-04-02T07:28:15;98685.13;;;10.02;100.00
51759;BME280;66684;47.568;18.734;2023-04-02T07:30:42;98683.16;;;10.23;100.00
51759;BME280;66684;47.568;18.734;2023-04-02T07:33:12;98691.69;;;10.21;100.00
51759;BME280;66684;47.568;18.734;2023-04-02T07:35:39;98691.91;;;9.98;100.00
51759;BME280;66684;47.568;18.734;2023-04-02T07:38:05;98685.31;;;10.08;100.00
51759;BME280;66684;47.568;18.734;2023-04-02T07:40:31;98693.28;;;10.17;100.00
51759;BME280;66684;47.568;18.734;2023-04-02T07:42:57;98706.28;;;10.20;100.00
51759;BME280;66684;47.568;18.734;2023-04-02T07:45:22;98702.47;;;10.06;100.00
51759;BME280;66684;47.568;18.734;2023-04-02T07:47:48;98695.81;;;10.14;100.00
51759;BME280;66684;47.568;18.734;2023-04-02T07:50:14;98700.28;;;10.21;100.00
51759;BME280;66684;47.568;18.734;2023-04-02T07:52:41;98710.31;;;10.41;100.00
51759;BME280;66684;47.568;18.734;2023-04-02T07:55:09;98705.16;;;10.41;100.00
51759;BME280;66684;47.568;18.734;2023-04-02T07:58:00;98714.81;;;10.48;100.00
51759;BME280;66684;47.568;18.734;2023-04-02T08:00:26;98712.00;;;10.39;100.00
51759;BME280;66684;47.568;18.734;2023-04-02T08:02:53;98721.13;;;10.59;100.00
51759;BME280;66684;47.568;18.734;2023-04-02T08:05:19;98721.53;;;10.74;100.00
51759;BME280;66684;47.568;18.734;2023-04-02T08:07:53;98732.16;;;10.87;100.00
51759;BME280;66684;47.568;18.734;2023-04-02T08:10:20;98729.19;;;10.70;100.00
51759;BME280;66684;47.568;18.734;2023-04-02T08:12:46;98733.22;;;10.60;100.00
51759;BME280;66684;47.568;18.734;2023-04-02T08:15:14;98728.87;;;10.59;100.00
51759;BME280;66684;47.568;18.734;2023-04-02T08:17:41;98734.88;;;10.58;100.00
51759;BME280;66684;47.568;18.734;2023-04-02T08:20:14;98739.91;;;10.52;100.00
51759;BME280;66684;47.568;18.734;2023-04-02T08:22:41;98739.47;;;10.37;100.00
51759;BME280;66684;47.568;18.734;2023-04-02T08:25:08;98743.16;;;10.45;100.00
51759;BME280;66684;47.568;18.734;2023-04-02T08:27:34;98739.62;;;10.43;100.00
51759;BME280;66684;47.568;18.734;2023-04-02T08:30:00;98743.13;;;10.43;100.00
51759;BME280;66684;47.568;18.734;2023-04-02T08:32:26;98738.41;;;10.30;100.00
51759;BME280;66684;47.568;18.734;2023-04-02T08:34:53;98744.78;;;10.43;100.00
51759;BME280;66684;47.568;18.734;2023-04-02T08:37:19;98744.22;;;10.53;100.00
51759;BME280;66684;47.568;18.734;2023-04-02T08:39:45;98745.56;;;10.70;100.00
51759;BME280;66684;47.568;18.734;2023-04-02T08:42:35;98753.38;;;10.42;100.00
51759;BME280;66684;47.568;18.734;2023-04-02T08:47:37;98753.91;;;10.30;100.00
51759;BME280;66684;47.568;18.734;2023-04-02T08:52:40;98761.06;;;10.70;100.00
51759;BME280;66684;47.568;18.734;2023-04-02T08:55:18;98767.88;;;10.68;100.00
51759;BME280;66684;47.568;18.734;2023-04-02T09:00:38;98777.50;;;10.74;100.00
51759;BME280;66684;47.568;18.734;2023-04-02T09:05:49;98777.66;;;10.80;100.00
51759;BME280;66684;47.568;18.734;2023-04-02T09:08:19;98789.59;;;10.75;100.00
51759;BME280;66684;47.568;18.734;2023-04-02T09:11:08;98780.13;;;10.75;100.00
51759;BME280;66684;47.568;18.734;2023-04-02T09:13:44;98790.63;;;10.82;100.00
51759;BME280;66684;47.568;18.734;2023-04-02T09:16:15;98792.72;;;10.63;100.00
51759;BME280;66684;47.568;18.734;2023-04-02T09:18:44;98787.38;;;10.89;100.00
51759;BME280;66684;47.568;18.734;2023-04-02T09:23:47;98801.69;;;10.76;100.00
51759;BME280;66684;47.568;18.734;2023-04-02T09:26:32;98796.03;;;10.91;100.00
51759;BME280;66684;47.568;18.734;2023-04-02T09:31:34;98794.03;;;10.80;100.00
51759;BME280;66684;47.568;18.734;2023-04-02T09:34:29;98790.81;;;10.88;100.00
51759;BME280;66684;47.568;18.734;2023-04-02T09:36:55;98790.88;;;10.91;100.00
51759;BME280;66684;47.568;18.734;2023-04-02T09:39:24;98799.84;;;11.05;100.00
51759;BME280;66684;47.568;18.734;2023-04-02T09:41:51;98794.78;;;11.10;100.00
51759;BME280;66684;47.568;18.734;2023-04-02T09:46:52;98803.91;;;11.65;100.00
51759;BME280;66684;47.568;18.734;2023-04-02T09:49:22;98800.84;;;11.81;100.00
51759;BME280;66684;47.568;18.734;2023-04-02T09:52:05;98799.34;;;11.91;100.00
51759;BME280;66684;47.568;18.734;2023-04-02T09:54:31;98809.31;;;12.13;100.00
51759;BME280;66684;47.568;18.734;2023-04-02T09:57:00;98803.87;;;12.40;99.39
51759;BME280;66684;47.568;18.734;2023-04-02T09:59:26;98801.53;;;12.54;95.96
51759;BME280;66684;47.568;18.734;2023-04-02T10:04:40;98803.63;;;12.73;95.88
51759;BME280;66684;47.568;18.734;2023-04-02T10:10:00;98806.78;;;12.57;94.79
51759;BME280;66684;47.568;18.734;2023-04-02T10:12:29;98798.06;;;12.52;97.04
51759;BME280;66684;47.568;18.734;2023-04-02T10:15:02;98811.00;;;12.52;100.00
51759;BME280;66684;47.568;18.734;2023-04-02T10:17:31;98801.41;;;12.48;97.60
51759;BME280;66684;47.568;18.734;2023-04-02T10:20:18;98811.34;;;12.26;100.00
51759;BME280;66684;47.568;18.734;2023-04-02T10:22:47;98803.41;;;12.19;99.84
51759;BME280;66684;47.568;18.734;2023-04-02T10:25:18;98815.31;;;12.10;99.22
51759;BME280;66684;47.568;18.734;2023-04-02T10:27:52;98819.06;;;12.25;97.34
51759;BME280;66684;47.568;18.734;2023-04-02T10:33:21;98813.94;;;12.26;97.06
51759;BME280;66684;47.568;18.734;2023-04-02T10:36:17;98806.31;;;12.34;99.35
51759;BME280;66684;47.568;18.734;2023-04-02T10:38:50;98805.59;;;12.39;97.78
51759;BME280;66684;47.568;18.734;2023-04-02T10:41:31;98807.34;;;12.42;98.06
51759;BME280;66684;47.568;18.734;2023-04-02T10:47:02;98805.03;;;12.56;96.66
51759;BME280;66684;47.568;18.734;2023-04-02T10:52:58;98795.25;;;12.86;93.87
51759;BME280;66684;47.568;18.734;2023-04-02T10:55:25;98797.94;;;12.91;93.15
51759;BME280;66684;47.568;18.734;2023-04-02T10:57:53;98808.53;;;13.03;96.49
51759;BME280;66684;47.568;18.734;2023-04-02T11:00:24;98811.53;;;13.26;93.10
51759;BME280;66684;47.568;18.734;2023-04-02T11:02:56;98808.94;;;13.26;91.08
51759;BME280;66684;47.568;18.734;2023-04-02T11:05:50;98809.75;;;13.20;92.87
51759;BME280;66684;47.568;18.734;2023-04-02T11:11:00;98809.59;;;13.66;87.36
51759;BME280;66684;47.568;18.734;2023-04-02T11:13:32;98813.06;;;13.66;87.51
51759;BME280;66684;47.568;18.734;2023-04-02T11:16:00;98808.66;;;13.61;88.00
51759;BME280;66684;47.568;18.734;2023-04-02T11:18:33;98809.28;;;14.03;93.74
51759;BME280;66684;47.568;18.734;2023-04-02T11:21:05;98806.53;;;14.58;88.83
51759;BME280;66684;47.568;18.734;2023-04-02T11:23:34;98804.34;;;14.92;90.63
51759;BME280;66684;47.568;18.734;2023-04-02T11:26:41;98801.84;;;15.05;85.25
51759;BME280;66684;47.568;18.734;2023-04-02T11:29:14;98790.97;;;15.46;80.62
51759;BME280;66684;47.568;18.734;2023-04-02T11:31:42;98795.16;;;15.29;80.58
51759;BME280;66684;47.568;18.734;2023-04-02T11:39:55;98788.09;;;15.19;79.54
51759;BME280;66684;47.568;18.734;2023-04-02T11:42:26;98792.00;;;14.72;78.35
51759;BME280;66684;47.568;18.734;2023-04-02T11:44:53;98786.78;;;14.71;81.22
51759;BME280;66684;47.568;18.734;2023-04-02T11:47:22;98791.72;;;14.48;82.04
51759;BME280;66684;47.568;18.734;2023-04-02T11:49:55;98791.13;;;14.03;80.79
51759;BME280;66684;47.568;18.734;2023-04-02T11:52:35;98792.91;;;14.09;80.19
51759;BME280;66684;47.568;18.734;2023-04-02T11:55:24;98790.59;;;14.29;82.57
51759;BME280;66684;47.568;18.734;2023-04-02T12:09:20;98784.22;;;14.07;79.50
51759;BME280;66684;47.568;18.734;2023-04-02T12:11:49;98784.97;;;13.98;78.02
51759;BME280;66684;47.568;18.734;2023-04-02T12:17:12;98772.59;;;14.46;75.35
51759;BME280;66684;47.568;18.734;2023-04-02T12:20:16;98771.78;;;14.48;73.89
51759;BME280;66684;47.568;18.734;2023-04-02T12:22:37;98763.50;;;14.12;77.73
51759;BME280;66684;47.568;18.734;2023-04-02T12:25:18;98770.25;;;13.96;76.07
51759;BME280;66684;47.568;18.734;2023-04-02T12:30:35;98774.31;;;13.80;76.65
51759;BME280;66684;47.568;18.734;2023-04-02T12:33:29;98775.16;;;13.77;77.09
51759;BME280;66684;47.568;18.734;2023-04-02T12:36:00;98768.06;;;13.64;79.26
51759;BME280;66684;47.568;18.734;2023-04-02T12:38:29;98770.09;;;13.88;79.98
51759;BME280;66684;47.568;18.734;2023-04-02T12:40:58;98763.34;;;13.99;78.54
51759;BME280;66684;47.568;18.734;2023-04-02T12:43:34;98759.34;;;14.26;76.48
51759;BME280;66684;47.568;18.734;2023-04-02T12:46:06;98760.81;;;14.06;77.59
51759;BME280;66684;47.568;18.734;2023-04-02T12:48:34;98764.28;;;14.04;77.58
51759;BME280;66684;47.568;18.734;2023-04-02T12:51:02;98746.88;;;13.97;80.80
51759;BME280;66684;47.568;18.734;2023-04-02T12:53:33;98755.09;;;13.66;78.59
51759;BME280;66684;47.568;18.734;2023-04-02T12:56:01;98756.03;;;13.18;81.59
51759;BME280;66684;47.568;18.734;2023-04-02T12:58:34;98764.56;;;13.11;81.49
51759;BME280;66684;47.568;18.734;2023-04-02T13:01:17;98755.69;;;12.96;82.93
51759;BME280;66684;47.568;18.734;2023-04-02T13:06:34;98759.47;;;13.17;78.11
51759;BME280;66684;47.568;18.734;2023-04-02T13:09:03;98751.81;;;13.79;74.89
51759;BME280;66684;47.568;18.734;2023-04-02T13:11:40;98747.06;;;14.13;78.31
51759;BME280;66684;47.568;18.734;2023-04-02T13:14:15;98746.94;;;14.03;76.20
51759;BME280;66684;47.568;18.734;2023-04-02T13:16:42;98745.22;;;14.02;76.92
51759;BME280;66684;47.568;18.734;2023-04-02T13:21:42;98750.47;;;14.83;75.93
51759;BME280;66684;47.568;18.734;2023-04-02T13:24:31;98746.00;;;14.70;76.13
51759;BME280;66684;47.568;18.734;2023-04-02T13:27:00;98764.88;;;14.50;77.94
51759;BME280;66684;47.568;18.734;2023-04-02T13:29:29;98757.13;;;14.55;79.19
51759;BME280;66684;47.568;18.734;2023-04-02T13:31:58;98752.88;;;14.62;76.29
51759;BME280;66684;47.568;18.734;2023-04-02T13:34:25;98764.88;;;14.50;76.43
51759;BME280;66684;47.568;18.734;2023-04-02T13:36:51;98756.94;;;14.41;78.06
51759;BME280;66684;47.568;18.734;2023-04-02T13:39:17;98754.28;;;14.38;78.44
51759;BME280;66684;47.568;18.734;2023-04-02T13:41:57;98761.47;;;14.54;77.45
51759;BME280;66684;47.568;18.734;2023-04-02T13:44:27;98753.41;;;14.36;78.70
51759;BME280;66684;47.568;18.734;2023-04-02T13:46:55;98752.72;;;14.49;78.43
51759;BME280;66684;47.568;18.734;2023-04-02T13:49:23;98749.47;;;14.67;80.00
51759;BME280;66684;47.568;18.734;2023-04-02T13:51:51;98754.84;;;14.84;76.99
51759;BME280;66684;47.568;18.734;2023-04-02T13:54:29;98752.53;;;15.21;77.54
51759;BME280;66684;47.568;18.734;2023-04-02T13:56:58;98752.75;;;15.44;73.27
51759;BME280;66684;47.568;18.734;2023-04-02T13:59:25;98748.59;;;15.66;74.26
51759;BME280;66684;47.568;18.734;2023-04-02T14:01:57;98750.19;;;15.51;72.43
51759;BME280;66684;47.568;18.734;2023-04-02T14:04:27;98775.09;;;15.19;72.95
51759;BME280;66684;47.568;18.734;2023-04-02T14:10:13;98763.81;;;13.71;81.22
51759;BME280;66684;47.568;18.734;2023-04-02T14:26:26;98781.41;;;13.90;78.03
51759;BME280;66684;47.568;18.734;2023-04-02T14:29:20;98783.22;;;13.97;79.87
51759;BME280;66684;47.568;18.734;2023-04-02T14:34:39;98784.62;;;13.74;80.26
51759;BME280;66684;47.568;18.734;2023-04-02T14:37:22;98785.97;;;13.47;81.84
51759;BME280;66684;47.568;18.734;2023-04-02T14:40:43;98791.91;;;13.42;83.40
51759;BME280;66684;47.568;18.734;2023-04-02T14:43:26;98795.94;;;13.23;85.58
51759;BME280;66684;47.568;18.734;2023-04-02T14:46:04;98793.28;;;13.20;87.34
51759;BME280;66684;47.568;18.734;2023-04-02T14:51:44;98791.03;;;13.41;86.10
51759;BME280;66684;47.568;18.734;2023-04-02T14:54:14;98786.81;;;13.46;86.42
51759;BME280;66684;47.568;18.734;2023-04-02T14:57:38;98786.00;;;13.50;87.63
51759;BME280;66684;47.568;18.734;2023-04-02T15:00:05;98789.66;;;13.63;85.07
51759;BME280;66684;47.568;18.734;2023-04-02T15:02:41;98787.84;;;13.58;85.71
51759;BME280;66684;47.568;18.734;2023-04-02T15:05:23;98790.66;;;13.71;85.09
51759;BME280;66684;47.568;18.734;2023-04-02T15:07:58;98795.09;;;13.80;83.23
51759;BME280;66684;47.568;18.734;2023-04-02T15:13:20;98796.72;;;13.72;85.32
51759;BME280;66684;47.568;18.734;2023-04-02T15:15:51;98796.66;;;13.69;81.27
51759;BME280;66684;47.568;18.734;2023-04-02T15:18:21;98801.94;;;13.73;80.42
51759;BME280;66684;47.568;18.734;2023-04-02T15:31:46;98801.22;;;13.29;81.37
51759;BME280;66684;47.568;18.734;2023-04-02T15:34:26;98794.84;;;13.12;81.86
51759;BME280;66684;47.568;18.734;2023-04-02T15:42:27;98814.25;;;12.85;81.93
51759;BME280;66684;47.568;18.734;2023-04-02T15:48:15;98820.25;;;12.83;80.91
51759;BME280;66684;47.568;18.734;2023-04-02T15:56:22;98823.53;;;12.74;80.66
51759;BME280;66684;47.568;18.734;2023-04-02T16:12:27;98851.88;;;12.24;76.60
51759;BME280;66684;47.568;18.734;2023-04-02T16:14:58;98861.25;;;12.19;75.25
51759;BME280;66684;47.568;18.734;2023-04-02T16:17:42;98856.50;;;12.00;73.99
51759;BME280;66684;47.568;18.734;2023-04-02T16:20:26;98871.00;;;11.92;73.29
51759;BME280;66684;47.568;18.734;2023-04-02T16:23:10;98860.31;;;11.79;73.75
51759;BME280;66684;47.568;18.734;2023-04-02T16:25:53;98873.31;;;11.81;73.82
51759;BME280;66684;47.568;18.734;2023-04-02T16:34:18;98872.31;;;11.41;74.35
51759;BME280;66684;47.568;18.734;2023-04-02T16:37:00;98890.13;;;11.30;75.99